Time;durP1;ratioP1;P1;durP2;ratioP2;P2;SDS_P1;SDS_P2;PMS_P1;PMS_P2;Temp;Humidity;BMP_temperature;BMP_pressure;BME280_temperature;BME280_humidity;BME280_pressure;Samples;Min_cycle;Max_cycle;Signal;HPM_P1;HPM_P2
2022/04/23 00:04:49;;;;;;;45.87;24.20;;;3.50;99.90;;;;;;10581748;28;20038;-84
2022/04/23 00:09:49;;;;;;;46.83;24.80;;;3.50;99.90;;;;;;10580903;28;20030;-84
2022/04/23 00:14:50;;;;;;;39.20;21.43;;;3.60;99.90;;;;;;10581808;28;20050;-84
2022/04/23 00:19:50;;;;;;;43.83;22.47;;;3.50;99.90;;;;;;10580907;28;20058;-84
2022/04/23 00:24:51;;;;;;;38.47;20.37;;;3.40;99.90;;;;;;10562604;28;20059;-83
2022/04/23 00:29:52;;;;;;;36.33;19.93;;;3.20;99.90;;;;;;10581469;28;20034;-84
2022/04/23 00:34:52;;;;;;;38.93;19.60;;;3.00;99.90;;;;;;10580352;28;20103;-83
2022/04/23 00:39:53;;;;;;;47.67;23.30;;;2.90;99.90;;;;;;10579693;28;20047;-83
2022/04/23 00:44:54;;;;;;;42.53;22.27;;;2.80;99.90;;;;;;10579811;28;20023;-83
2022/04/23 00:49:54;;;;;;;38.07;20.77;;;2.80;99.90;;;;;;10579858;28;20125;-83
2022/04/23 00:54:56;;;;;;;42.60;22.23;;;2.70;99.90;;;;;;10561217;28;20020;-83
2022/04/23 00:59:56;;;;;;;39.97;22.17;;;2.80;99.90;;;;;;10578566;28;20510;-84
2022/04/23 01:04:57;;;;;;;39.73;21.07;;;2.80;99.90;;;;;;10579113;28;20026;-84
2022/04/23 01:09:57;;;;;;;49.53;25.70;;;2.60;99.90;;;;;;10578428;28;20465;-84
2022/04/23 01:15:03;;;;;;;44.13;20.67;;;2.50;99.90;;;;;;10578794;28;20028;-84
2022/04/23 01:20:14;;;;;;;44.45;22.25;;;2.50;99.90;;;;;;10578537;28;20027;-85
2022/04/23 01:25:15;;;;;;;45.43;24.73;;;2.40;99.90;;;;;;10578178;28;20024;-82
2022/04/23 01:30:16;;;;;;;44.63;22.47;;;2.20;99.90;;;;;;10577864;28;20420;-84
2022/04/23 01:35:17;;;;;;;46.43;21.30;;;2.20;99.90;;;;;;10559204;28;20383;-84
2022/04/23 01:40:17;;;;;;;48.87;24.30;;;2.00;99.90;;;;;;10559446;28;20052;-85
2022/04/23 01:45:18;;;;;;;47.03;24.27;;;2.00;99.90;;;;;;10577043;28;20098;-85
2022/04/23 01:50:19;;;;;;;39.63;21.90;;;2.10;99.90;;;;;;10578266;28;20023;-84
2022/04/23 01:55:19;;;;;;;41.20;21.50;;;2.10;99.90;;;;;;10577023;28;20055;-85
2022/04/23 02:00:20;;;;;;;48.60;22.93;;;1.90;99.90;;;;;;10576480;28;20028;-83
2022/04/23 02:05:21;;;;;;;46.23;23.20;;;1.80;99.90;;;;;;10577103;28;20065;-84
2022/04/23 02:10:21;;;;;;;57.20;28.53;;;1.70;99.90;;;;;;10576325;28;20036;-84
2022/04/23 02:15:22;;;;;;;51.93;23.67;;;1.70;99.90;;;;;;10558434;28;20084;-84
2022/04/23 02:20:23;;;;;;;47.70;23.27;;;1.80;99.90;;;;;;10575518;28;20037;-84
2022/04/23 02:25:24;;;;;;;44.47;24.27;;;1.70;99.90;;;;;;10557320;28;20019;-83
2022/04/23 02:30:25;;;;;;;50.37;24.27;;;1.70;99.90;;;;;;10575583;28;20463;-84
2022/04/23 02:35:26;;;;;;;44.47;22.47;;;1.70;99.90;;;;;;10556986;28;20019;-83
2022/04/23 02:40:27;;;;;;;48.90;23.37;;;1.60;99.90;;;;;;10575690;28;20749;-83
2022/04/23 02:45:27;;;;;;;54.87;25.13;;;1.40;99.90;;;;;;10557079;28;20024;-84
2022/04/23 02:50:31;;;;;;;62.20;29.10;;;1.40;99.90;;;;;;10556827;28;20126;-83
2022/04/23 02:55:33;;;;;;;59.93;29.63;;;1.50;99.90;;;;;;10556902;28;20035;-83
2022/04/23 03:00:39;;;;;;;49.70;24.20;;;1.60;99.90;;;;;;10574932;28;20429;-84
2022/04/23 03:05:42;;;;;;;44.38;22.67;;;1.60;99.90;;;;;;10550168;28;20679;-84
2022/04/23 03:10:44;;;;;;;60.40;26.27;;;1.50;99.90;;;;;;10532370;28;20024;-84
2022/04/23 03:15:45;;;;;;;52.23;24.93;;;1.40;99.90;;;;;;10568816;28;20020;-83
2022/04/23 03:20:45;;;;;;;69.27;30.43;;;1.40;99.90;;;;;;10574501;28;20031;-85
2022/04/23 03:25:46;;;;;;;55.20;27.37;;;1.40;99.90;;;;;;10573980;28;20399;-83
2022/04/23 03:30:47;;;;;;;71.37;32.73;;;1.20;99.90;;;;;;10579117;28;20020;-83
2022/04/23 03:35:48;;;;;;;61.43;28.13;;;1.30;99.90;;;;;;10582378;28;20023;-83
2022/04/23 03:40:53;;;;;;;63.97;31.50;;;1.40;99.90;;;;;;10582717;28;20146;-84
2022/04/23 03:45:54;;;;;;;74.77;34.20;;;1.40;99.90;;;;;;10582196;28;20022;-83
2022/04/23 03:50:55;;;;;;;65.97;30.90;;;1.40;99.90;;;;;;10581935;28;20394;-84
2022/04/23 03:55:55;;;;;;;52.60;26.37;;;1.60;99.90;;;;;;10581894;28;20028;-84
2022/04/23 04:00:56;;;;;;;60.10;28.43;;;1.70;99.90;;;;;;10581140;28;20039;-83
2022/04/23 04:05:56;;;;;;;67.83;30.47;;;1.60;99.90;;;;;;10581648;28;20023;-83
2022/04/23 04:10:57;;;;;;;65.60;30.90;;;1.70;99.90;;;;;;10581107;28;20024;-82
2022/04/23 04:15:57;;;;;;;60.17;29.03;;;1.80;99.90;;;;;;10553703;28;20752;-83
2022/04/23 04:20:58;;;;;;;66.67;30.83;;;1.80;99.90;;;;;;10541334;28;20478;-84
2022/04/23 04:25:59;;;;;;;63.10;31.00;;;1.90;99.90;;;;;;10580704;28;20058;-83
2022/04/23 04:36:19;;;;;;;63.03;31.13;;;2.10;99.90;;;;;;10580160;28;20027;-83
2022/04/23 04:41:20;;;;;;;64.00;29.30;;;2.20;99.90;;;;;;10560508;28;20051;-84
2022/04/23 04:46:20;;;;;;;63.97;30.93;;;2.30;99.90;;;;;;10580882;28;20538;-83
2022/04/23 04:51:21;;;;;;;56.77;27.80;;;2.40;99.90;;;;;;10579395;28;20390;-83
2022/04/23 04:56:22;;;;;;;58.80;30.30;;;2.50;99.90;;;;;;10579842;28;20051;-84
2022/04/23 05:01:22;;;;;;;58.80;28.43;;;2.70;99.90;;;;;;10579225;28;20118;-83
2022/04/23 05:06:23;;;;;;;54.40;28.60;;;2.90;99.90;;;;;;10579129;28;20059;-82
2022/04/23 05:11:24;;;;;;;54.00;26.40;;;3.00;99.90;;;;;;10579204;28;20546;-83
2022/04/23 05:16:25;;;;;;;51.73;26.43;;;3.20;99.90;;;;;;10579158;28;20387;-83
2022/04/23 05:21:25;;;;;;;48.50;25.50;;;3.40;99.90;;;;;;10578899;28;20035;-83
2022/04/23 05:26:26;;;;;;;48.70;25.60;;;3.60;99.90;;;;;;10577957;28;20106;-83
2022/04/23 05:31:27;;;;;;;46.97;24.17;;;3.80;99.90;;;;;;10578393;28;20081;-83
2022/04/23 05:36:27;;;;;;;43.80;23.07;;;4.00;99.90;;;;;;10578020;28;20035;-84
2022/04/23 05:41:28;;;;;;;41.20;22.47;;;4.30;99.90;;;;;;10577227;28;20063;-84
2022/04/23 05:46:29;;;;;;;40.00;20.80;;;4.60;99.90;;;;;;10577996;28;20116;-83
2022/04/23 05:51:29;;;;;;;34.80;20.83;;;4.90;99.90;;;;;;10576838;28;20107;-83
2022/04/23 05:56:30;;;;;;;28.57;16.40;;;5.30;99.90;;;;;;10577579;28;20364;-83
2022/04/23 06:01:30;;;;;;;31.33;17.63;;;5.60;99.90;;;;;;10576569;28;20445;-84
2022/04/23 06:06:31;;;;;;;25.27;14.47;;;5.90;99.90;;;;;;10575477;28;20035;-83
2022/04/23 06:11:32;;;;;;;21.27;12.93;;;6.20;99.90;;;;;;10576546;28;20031;-83
2022/04/23 06:16:34;;;;;;;16.33;10.63;;;6.50;99.90;;;;;;10577191;28;20077;-83
2022/04/23 06:21:35;;;;;;;21.30;13.00;;;6.70;99.90;;;;;;10575939;28;20126;-83
2022/04/23 06:26:36;;;;;;;19.37;11.90;;;6.90;99.90;;;;;;10575562;28;20524;-83
2022/04/23 06:31:36;;;;;;;17.73;11.00;;;7.10;99.90;;;;;;10575803;28;20038;-84
2022/04/23 06:36:37;;;;;;;14.27;8.67;;;7.40;99.90;;;;;;10575523;28;20110;-83
2022/04/23 06:41:37;;;;;;;13.03;8.10;;;7.60;99.90;;;;;;10574827;28;20487;-84
2022/04/23 06:46:38;;;;;;;10.40;6.90;;;7.80;99.90;;;;;;10575957;28;20020;-83
2022/04/23 06:51:40;;;;;;;14.77;8.23;;;8.00;99.90;;;;;;10574938;28;20057;-84
2022/04/23 06:56:41;;;;;;;11.33;7.57;;;8.30;99.90;;;;;;10575516;28;20023;-84
2022/04/23 07:01:41;;;;;;;12.07;7.20;;;8.60;99.90;;;;;;10574077;28;20048;-82
2022/04/23 07:06:42;;;;;;;8.77;5.90;;;8.70;99.90;;;;;;10573846;28;20027;-84
2022/04/23 07:11:42;;;;;;;10.27;7.37;;;8.90;99.90;;;;;;10575248;28;20012;-83
2022/04/23 07:16:43;;;;;;;14.00;7.37;;;9.30;99.90;;;;;;10574837;28;20528;-83
2022/04/23 07:21:44;;;;;;;10.63;7.00;;;9.50;99.90;;;;;;10574621;28;20051;-83
2022/04/23 07:26:44;;;;;;;8.70;5.93;;;9.90;96.00;;;;;;10573016;28;20046;-83
2022/04/23 07:31:45;;;;;;;9.18;6.03;;;10.10;96.80;;;;;;10574975;28;20016;-83
2022/04/23 07:42:06;;;;;;;10.35;6.28;;;10.70;90.50;;;;;;10574321;28;20083;-82
2022/04/23 07:47:07;;;;;;;8.32;5.80;;;10.90;91.90;;;;;;10574433;28;20030;-83
2022/04/23 07:52:08;;;;;;;10.05;5.75;;;11.20;92.40;;;;;;10573567;28;20110;-83
2022/04/23 07:57:08;;;;;;;9.02;5.75;;;11.50;90.90;;;;;;10573675;28;20040;-83
2022/04/23 08:02:10;;;;;;;7.25;5.43;;;11.80;87.60;;;;;;10573500;28;20039;-83
2022/04/23 08:07:10;;;;;;;5.93;5.20;;;12.20;86.50;;;;;;10573340;28;20042;-83
2022/04/23 08:12:11;;;;;;;8.27;5.43;;;12.30;80.70;;;;;;10573468;28;20107;-83
2022/04/23 08:17:11;;;;;;;6.65;5.30;;;12.40;81.50;;;;;;10576105;28;20114;-83
2022/04/23 08:22:12;;;;;;;6.40;5.10;;;12.60;82.30;;;;;;10580857;28;20043;-84
2022/04/23 08:27:13;;;;;;;8.25;5.30;;;12.90;81.10;;;;;;10580661;28;20123;-83
2022/04/23 08:32:13;;;;;;;7.00;5.32;;;13.00;76.90;;;;;;10580671;28;20038;-83
2022/04/23 08:37:14;;;;;;;7.82;5.85;;;13.00;73.30;;;;;;10580339;28;20432;-83
2022/04/23 08:42:18;;;;;;;7.20;5.55;;;12.80;76.70;;;;;;10578039;28;20398;-83
2022/04/23 08:47:23;;;;;;;7.20;5.40;;;13.30;78.50;;;;;;10579758;28;20067;-83
2022/04/23 08:52:33;;;;;;;9.43;6.85;;;14.20;77.10;;;;;;10579650;28;20031;-84
2022/04/23 08:57:35;;;;;;;7.38;6.10;;;14.60;77.00;;;;;;10580256;28;20024;-85
2022/04/23 09:02:35;;;;;;;8.13;6.03;;;15.10;71.90;;;;;;10578228;28;20122;-83
2022/04/23 09:07:36;;;;;;;8.82;6.43;;;15.30;70.00;;;;;;10579331;28;20134;-84
2022/04/23 09:12:56;;;;;;;9.63;6.55;;;15.00;68.40;;;;;;10579301;28;20028;-84
2022/04/23 09:28:35;;;;;;;7.68;6.63;;;13.70;70.90;;;;;;10578346;28;20047;-83
2022/04/23 09:33:48;;;;;;;8.43;6.20;;;14.00;70.20;;;;;;10578044;28;20035;-83
2022/04/23 09:39:00;;;;;;;9.02;6.88;;;14.80;67.10;;;;;;10577662;28;20060;-82
2022/04/23 09:44:09;;;;;;;8.30;6.25;;;14.40;71.80;;;;;;10577486;28;20446;-83
2022/04/23 09:49:11;;;;;;;6.85;6.10;;;14.70;67.90;;;;;;10576987;28;20020;-82
2022/04/23 09:54:12;;;;;;;8.77;6.15;;;14.30;68.90;;;;;;10577095;28;20539;-82
2022/04/23 09:59:13;;;;;;;7.65;5.72;;;14.70;69.50;;;;;;10575769;28;20122;-82
2022/04/23 10:04:17;;;;;;;8.77;6.10;;;14.80;69.00;;;;;;10577114;28;20040;-82
2022/04/23 10:09:26;;;;;;;6.60;5.30;;;15.10;67.10;;;;;;10576425;28;20077;-84
2022/04/23 10:14:34;;;;;;;11.23;5.90;;;15.40;64.40;;;;;;10576631;28;20046;-81
2022/04/23 10:19:35;;;;;;;7.15;6.10;;;15.30;67.90;;;;;;10575109;28;20649;-83
2022/04/23 10:24:51;;;;;;;5.97;5.32;;;15.10;66.70;;;;;;10575227;28;20038;-83
2022/04/23 10:30:03;;;;;;;6.82;6.07;;;14.60;66.10;;;;;;10575697;28;20482;-83
2022/04/23 10:35:23;;;;;;;6.03;4.78;;;14.60;67.00;;;;;;10575638;28;20024;-83
2022/04/23 10:40:24;;;;;;;6.95;5.78;;;15.10;67.50;;;;;;10573941;28;20537;-82
2022/04/23 10:45:35;;;;;;;11.52;5.95;;;14.80;67.50;;;;;;10573784;28;20026;-83
2022/04/23 10:50:36;;;;;;;7.93;6.22;;;14.80;66.60;;;;;;10574411;28;20020;-82
2022/04/23 10:56:26;;;;;;;12.77;9.30;;;14.50;68.20;;;;;;10574903;28;20098;-83
2022/04/23 11:01:31;;;;;;;12.55;7.97;;;15.10;65.70;;;;;;10552305;28;20677;-81
2022/04/23 11:12:28;;;;;;;32.17;21.02;;;15.80;66.60;;;;;;10574014;28;20036;-82
2022/04/23 11:17:37;;;;;;;7.72;5.93;;;16.20;62.70;;;;;;10572994;28;20023;-82
2022/04/23 11:22:38;;;;;;;6.63;5.80;;;16.00;65.80;;;;;;10573872;28;20059;-82
2022/04/23 11:27:38;;;;;;;18.35;11.80;;;15.50;64.90;;;;;;10570752;28;20062;-82
2022/04/23 11:32:39;;;;;;;23.20;15.13;;;15.80;66.80;;;;;;10572443;28;20028;-84
2022/04/23 11:37:40;;;;;;;16.63;9.20;;;16.00;66.80;;;;;;10573088;28;20028;-83
2022/04/23 11:42:46;;;;;;;8.13;5.20;;;16.00;64.40;;;;;;10571432;28;20379;-82
2022/04/23 11:47:46;;;;;;;6.05;4.68;;;16.70;65.60;;;;;;10569999;28;20118;-82
2022/04/23 11:53:01;;;;;;;6.35;4.47;;;17.00;62.20;;;;;;10579394;28;20123;-84
2022/04/23 11:58:07;;;;;;;5.53;4.13;;;16.00;63.30;;;;;;10581216;28;20066;-83
2022/04/23 12:03:08;;;;;;;54.88;40.50;;;15.80;65.60;;;;;;10581105;28;20031;-83
2022/04/23 12:08:21;;;;;;;35.83;27.98;;;16.50;65.00;;;;;;10581234;28;20590;-80
2022/04/23 12:13:22;;;;;;;6.80;5.15;;;16.90;64.00;;;;;;10575123;28;20029;-81
2022/04/23 12:18:23;;;;;;;6.53;4.90;;;16.20;62.90;;;;;;10542917;28;20471;-82
2022/04/23 12:23:23;;;;;;;18.70;14.88;;;15.70;63.40;;;;;;10562801;28;20089;-81
2022/04/23 12:44:52;;;;;;;7.25;6.05;;;16.40;61.40;;;;;;10573630;28;20048;-81
2022/04/23 12:49:58;;;;;;;6.75;6.05;;;15.80;62.60;;;;;;10575100;28;20018;-81
2022/04/23 12:55:25;;;;;;;19.98;12.02;;;15.40;62.50;;;;;;10555235;28;20032;-81
2022/04/23 13:00:26;;;;;;;17.55;12.20;;;15.10;61.10;;;;;;10570007;28;20031;-81
2022/04/23 13:05:27;;;;;;;8.52;6.95;;;15.70;62.90;;;;;;10563968;28;20024;-81
2022/04/23 13:10:29;;;;;;;75.32;50.30;;;15.90;62.70;;;;;;10558821;28;20032;-81
2022/04/23 13:15:30;;;;;;;22.58;14.38;;;15.70;61.90;;;;;;10564051;28;20027;-81
2022/04/23 13:20:31;;;;;;;32.40;18.33;;;15.60;60.90;;;;;;10578008;28;20055;-81
2022/04/23 13:25:32;;;;;;;20.85;13.52;;;15.70;63.60;;;;;;10560752;28;20640;-81
2022/04/23 13:30:32;;;;;;;9.40;8.20;;;16.30;62.30;;;;;;10577157;28;20065;-82
2022/04/23 13:35:33;;;;;;;12.57;8.57;;;15.70;61.10;;;;;;10560779;28;20062;-81
2022/04/23 13:40:34;;;;;;;12.27;8.20;;;15.30;61.70;;;;;;10550216;28;20063;-81
2022/04/23 13:45:34;;;;;;;8.25;6.68;;;15.20;62.10;;;;;;10547533;28;20089;-80
2022/04/23 13:50:36;;;;;;;9.05;7.20;;;15.30;62.10;;;;;;10563291;28;20632;-81
2022/04/23 13:55:37;;;;;;;7.38;5.93;;;15.10;62.30;;;;;;10577465;28;20077;-81
2022/04/23 14:00:37;;;;;;;7.25;6.43;;;14.90;62.60;;;;;;10568389;28;20040;-82
2022/04/23 14:10:57;;;;;;;7.00;6.00;;;15.30;62.40;;;;;;10575898;28;20044;-81
2022/04/23 14:15:58;;;;;;;9.07;6.85;;;15.30;64.80;;;;;;10570285;28;20028;-81
2022/04/23 14:20:59;;;;;;;8.57;6.28;;;15.30;64.20;;;;;;10576052;28;20414;-82
2022/04/23 14:26:00;;;;;;;8.18;6.82;;;15.50;64.10;;;;;;10575608;28;20070;-81
2022/04/23 14:31:00;;;;;;;8.07;6.18;;;15.40;63.30;;;;;;10575386;28;20027;-83
2022/04/23 14:36:01;;;;;;;10.85;8.70;;;15.30;62.80;;;;;;10575902;28;20023;-81
2022/04/23 14:41:02;;;;;;;13.90;11.07;;;15.10;63.80;;;;;;10573572;28;20054;-81
2022/04/23 14:46:03;;;;;;;112.57;93.70;;;15.20;63.90;;;;;;10573609;28;20039;-82
2022/04/23 14:56:22;;;;;;;9.95;7.80;;;15.00;63.10;;;;;;10574887;28;20040;-82
2022/04/23 15:01:23;;;;;;;9.70;7.25;;;15.00;63.90;;;;;;10574581;28;20043;-81
2022/04/23 15:06:23;;;;;;;9.95;7.47;;;15.00;64.40;;;;;;10573200;28;20023;-83
2022/04/23 15:11:24;;;;;;;10.20;6.80;;;15.00;63.50;;;;;;10575334;28;20039;-82
2022/04/23 15:16:24;;;;;;;8.35;6.68;;;14.80;64.10;;;;;;10574779;28;20024;-81
2022/04/23 15:21:25;;;;;;;33.05;21.65;;;14.90;63.30;;;;;;10574124;28;20432;-81
2022/04/23 15:26:26;;;;;;;59.30;34.15;;;14.90;64.50;;;;;;10577698;28;20032;-81
2022/04/23 15:31:26;;;;;;;734.53;502.00;;;14.90;63.90;;;;;;10582921;28;20024;-81
2022/04/23 15:36:27;;;;;;;128.10;71.80;;;14.70;64.10;;;;;;10582907;28;20032;-82
2022/04/23 15:41:28;;;;;;;189.68;128.27;;;14.60;63.90;;;;;;10582862;28;20048;-81
2022/04/23 15:46:29;;;;;;;348.38;225.02;;;14.60;65.00;;;;;;10582576;28;20031;-81
2022/04/23 15:51:29;;;;;;;709.30;487.65;;;14.50;65.00;;;;;;10582223;28;20442;-81
2022/04/23 15:56:30;;;;;;;69.53;42.00;;;14.50;64.60;;;;;;10582904;28;20031;-82
2022/04/23 16:01:30;;;;;;;18.92;11.27;;;14.40;66.00;;;;;;10581450;28;20032;-81
2022/04/23 16:06:31;;;;;;;13.13;8.77;;;14.50;65.40;;;;;;10581099;28;20497;-82
2022/04/23 16:11:31;;;;;;;38.42;22.45;;;14.30;64.90;;;;;;10580976;28;20484;-81
2022/04/23 16:16:32;;;;;;;15.23;10.40;;;14.30;66.30;;;;;;10580220;28;20374;-82
2022/04/23 16:21:33;;;;;;;16.20;11.38;;;14.20;65.50;;;;;;10580735;28;20040;-82
2022/04/23 16:26:35;;;;;;;16.90;9.70;;;14.20;65.80;;;;;;10580099;28;20073;-82
2022/04/23 16:31:36;;;;;;;15.00;9.68;;;14.00;65.80;;;;;;10580735;28;20059;-82
2022/04/23 16:47:15;;;;;;;7.78;6.97;;;13.80;65.10;;;;;;10579449;28;20514;-81
2022/04/23 16:52:16;;;;;;;8.23;6.78;;;13.70;65.60;;;;;;10579289;28;20031;-82
2022/04/23 16:57:16;;;;;;;10.23;7.43;;;13.60;65.70;;;;;;10578332;28;20023;-83
2022/04/23 17:02:17;;;;;;;11.60;8.10;;;13.50;66.20;;;;;;10578592;28;20399;-82
2022/04/23 17:07:18;;;;;;;9.93;7.43;;;13.40;67.00;;;;;;10579275;28;20024;-82
2022/04/23 17:12:19;;;;;;;11.00;7.38;;;13.30;67.60;;;;;;10578148;28;20035;-82
2022/04/23 17:17:20;;;;;;;9.70;7.10;;;13.10;70.50;;;;;;10577318;28;20019;-82
2022/04/23 17:22:21;;;;;;;9.98;7.60;;;12.80;72.00;;;;;;10578171;28;20043;-82
2022/04/23 17:27:21;;;;;;;9.60;6.85;;;12.50;71.80;;;;;;10578002;28;20042;-82
2022/04/23 17:32:22;;;;;;;10.48;7.70;;;12.30;72.00;;;;;;10577742;28;20106;-82
2022/04/23 17:37:23;;;;;;;12.35;8.10;;;12.10;72.20;;;;;;10577449;28;20032;-82
2022/04/23 17:42:23;;;;;;;18.55;9.48;;;11.70;73.10;;;;;;10576734;28;20597;-82
2022/04/23 17:47:24;;;;;;;20.60;10.73;;;11.30;73.60;;;;;;10577046;28;20027;-82
2022/04/23 17:52:24;;;;;;;24.00;12.52;;;11.00;74.40;;;;;;10577005;28;20043;-82
2022/04/23 17:57:25;;;;;;;25.60;14.47;;;10.70;75.60;;;;;;10559196;28;20087;-81
2022/04/23 18:07:46;;;;;;;30.10;18.13;;;10.30;77.50;;;;;;10576820;28;20020;-84
2022/04/23 18:12:46;;;;;;;33.73;20.07;;;10.00;78.20;;;;;;10576481;28;20115;-82
2022/04/23 18:17:47;;;;;;;33.07;21.30;;;9.90;79.00;;;;;;10570295;28;20024;-81
2022/04/23 18:22:48;;;;;;;38.17;23.37;;;9.80;79.70;;;;;;10576006;28;20092;-81
2022/04/23 18:27:49;;;;;;;33.67;22.73;;;9.70;80.70;;;;;;10564975;28;20054;-82
2022/04/23 18:32:49;;;;;;;30.10;18.80;;;9.60;81.60;;;;;;10558934;28;20023;-82
2022/04/23 18:37:50;;;;;;;30.73;18.00;;;9.50;82.20;;;;;;10567564;28;20126;-82
2022/04/23 18:42:51;;;;;;;27.53;17.60;;;9.50;83.30;;;;;;10564470;28;20046;-81
2022/04/23 18:47:51;;;;;;;30.40;18.67;;;9.40;84.70;;;;;;10557157;28;20016;-81
2022/04/23 18:52:52;;;;;;;34.20;20.33;;;9.30;86.30;;;;;;10569927;28;20030;-81
2022/04/23 18:57:54;;;;;;;34.27;21.20;;;9.30;87.40;;;;;;10567273;28;20122;-81
2022/04/23 19:02:55;;;;;;;38.63;22.33;;;9.30;87.40;;;;;;10561919;28;20032;-83
2022/04/23 19:07:56;;;;;;;37.07;22.80;;;9.20;88.30;;;;;;10562652;28;20035;-82
2022/04/23 19:12:57;;;;;;;48.23;27.10;;;9.00;90.10;;;;;;10569962;28;20035;-82
2022/04/23 19:17:57;;;;;;;51.53;28.27;;;8.90;90.90;;;;;;10556809;28;20468;-81
2022/04/23 19:28:18;;;;;;;66.63;38.47;;;8.60;92.50;;;;;;10566955;28;20040;-85
2022/04/23 19:33:18;;;;;;;63.80;36.50;;;8.50;93.70;;;;;;10566314;28;20028;-84
2022/04/23 19:38:19;;;;;;;62.37;34.90;;;8.50;94.80;;;;;;10570661;28;20142;-84
2022/04/23 19:43:19;;;;;;;80.77;41.73;;;8.50;94.50;;;;;;10563059;28;20042;-84
2022/04/23 19:48:20;;;;;;;76.97;41.40;;;8.30;95.60;;;;;;10566811;28;20020;-84
2022/04/23 19:53:21;;;;;;;88.83;45.13;;;8.10;96.40;;;;;;10569144;28;20027;-84
2022/04/23 19:58:24;;;;;;;81.20;43.70;;;8.00;98.00;;;;;;10549835;28;20024;-85
2022/04/23 20:03:24;;;;;;;78.83;43.30;;;8.00;99.90;;;;;;10551091;28;20036;-84
2022/04/23 20:08:25;;;;;;;87.27;47.93;;;8.00;99.90;;;;;;10555084;28;20459;-84
2022/04/23 20:13:26;;;;;;;130.77;75.00;;;8.00;99.70;;;;;;10574175;28;20035;-84
2022/04/23 20:18:28;;;;;;;112.47;60.27;;;8.00;99.80;;;;;;10576810;28;20032;-86
2022/04/23 20:23:28;;;;;;;104.47;55.60;;;7.70;99.90;;;;;;10569616;28;20099;-85
2022/04/23 20:33:49;;;;;;;61.57;35.03;;;7.30;99.90;;;;;;10564305;28;20039;-84
2022/04/23 20:38:50;;;;;;;67.73;37.20;;;7.20;99.90;;;;;;10566995;28;20051;-83
2022/04/23 20:43:51;;;;;;;65.47;36.00;;;7.30;99.90;;;;;;10571724;28;20040;-83
2022/04/23 20:48:51;;;;;;;63.93;35.47;;;7.40;99.90;;;;;;10559267;28;20112;-84
2022/04/23 20:53:52;;;;;;;64.07;36.10;;;7.40;99.90;;;;;;10574073;28;20028;-85
2022/04/23 20:58:53;;;;;;;67.23;37.27;;;7.40;99.90;;;;;;10567025;27;20103;-84
2022/04/23 21:03:54;;;;;;;62.23;35.10;;;7.50;99.90;;;;;;10548730;28;20038;-84
2022/04/23 21:08:54;;;;;;;91.07;49.83;;;7.50;99.90;;;;;;10546080;28;20031;-84
2022/04/23 21:13:56;;;;;;;75.17;41.60;;;7.30;99.90;;;;;;10574697;28;20031;-84
2022/04/23 21:18:57;;;;;;;89.23;49.60;;;7.20;99.90;;;;;;10551330;28;20023;-84
2022/04/23 21:23:58;;;;;;;110.27;58.63;;;6.90;99.90;;;;;;10553913;28;20069;-83
2022/04/23 21:28:58;;;;;;;109.20;54.13;;;6.90;99.90;;;;;;10550896;28;20043;-83
2022/04/23 21:33:59;;;;;;;108.80;57.03;;;6.80;99.90;;;;;;10563824;28;20120;-82
2022/04/23 21:38:59;;;;;;;86.90;47.00;;;6.70;99.90;;;;;;10568893;28;20466;-85
2022/04/23 21:49:22;;;;;;;68.53;37.20;;;6.70;99.90;;;;;;10572608;28;20495;-83
2022/04/23 21:54:23;;;;;;;55.70;31.20;;;6.60;99.90;;;;;;10575713;28;20020;-83
2022/04/23 21:59:23;;;;;;;54.27;29.83;;;6.50;99.90;;;;;;10574672;28;20027;-81
2022/04/23 22:04:25;;;;;;;48.63;26.73;;;6.40;99.90;;;;;;10571308;28;20389;-83
2022/04/23 22:09:25;;;;;;;43.70;26.77;;;6.40;99.90;;;;;;10565805;28;20032;-83
2022/04/23 22:14:26;;;;;;;48.60;25.60;;;6.40;99.90;;;;;;10547502;28;20036;-82
2022/04/23 22:19:26;;;;;;;47.33;26.50;;;6.50;99.90;;;;;;10568203;28;20432;-82
2022/04/23 22:24:27;;;;;;;54.43;30.70;;;6.50;99.90;;;;;;10569199;28;20043;-82
2022/04/23 22:29:28;;;;;;;44.73;25.03;;;6.30;99.90;;;;;;10563776;28;20056;-82
2022/04/23 22:34:28;;;;;;;45.10;24.77;;;6.30;99.90;;;;;;10548193;28;20088;-82
2022/04/23 22:39:29;;;;;;;58.13;30.13;;;6.40;99.90;;;;;;10563000;28;20055;-82
2022/04/23 22:44:33;;;;;;;50.97;28.80;;;6.40;99.90;;;;;;10560229;28;20047;-82
2022/04/23 22:49:33;;;;;;;49.80;29.97;;;6.40;99.90;;;;;;10542250;28;20069;-82
2022/04/23 22:54:34;;;;;;;52.83;31.17;;;6.30;99.90;;;;;;10549022;28;20095;-82
2022/04/23 22:59:35;;;;;;;50.67;29.27;;;6.10;99.90;;;;;;10558164;28;20032;-82
2022/04/23 23:04:36;;;;;;;52.93;31.00;;;6.10;99.90;;;;;;10441626;22;20069;-82
2022/04/23 23:09:37;;;;;;;52.50;30.10;;;6.00;99.90;;;;;;10408282;28;20029;-82
2022/04/23 23:14:37;;;;;;;49.73;28.87;;;5.90;99.90;;;;;;10407792;28;20520;-82
2022/04/23 23:19:38;;;;;;;65.63;37.23;;;5.80;99.90;;;;;;10407138;28;20068;-82
2022/04/23 23:24:38;;;;;;;102.67;53.63;;;5.70;99.90;;;;;;10408124;28;20038;-82
2022/04/23 23:29:39;;;;;;;57.10;30.87;;;5.60;99.90;;;;;;10428115;22;20045;-82
2022/04/23 23:34:40;;;;;;;54.80;30.70;;;5.50;99.90;;;;;;10501812;28;20025;-82
2022/04/23 23:39:40;;;;;;;48.30;28.70;;;5.70;99.90;;;;;;10472394;28;20035;-82
2022/04/23 23:44:41;;;;;;;66.80;35.73;;;5.90;99.90;;;;;;10489825;28;20040;-82
2022/04/23 23:49:41;;;;;;;59.93;33.33;;;5.90;99.90;;;;;;10497443;28;20043;-82
2022/04/23 23:54:42;;;;;;;56.50;33.87;;;5.90;99.90;;;;;;10497440;28;20036;-82
2022/04/23 23:59:43;;;;;;;56.33;34.30;;;5.80;99.90;;;;;;10497532;28;20036;-82
